Flamingo 4 — YQZS — position and weather

sailwx.info

Track history (hours):
 
Tides and Currents Weather Stations Pressure Air Temp Water Temp Dewpoint Dewpoint Depression Visibility Wind Speed Wind Dir Waves Ship Positions

Flamingo 4

Last reported at 2018-Jun-20 18:59 UTC. Time now 2018-Jun-20 19:01 UTC.
Position N 44°42' E 029°27'.

Length 25 m.

Type: Fishing. MMSI: 264900113.

Date/timePositionNaut miles runAvg speedWind from/ knotsBaromVisibWave heightAir tempDewpointWater temp
2018-Jun-20 18:59N 44°42' E 029°27'2 3.3
2018-Jun-20 18:30N 44°43' E 029°29'2 3.6
2018-Jun-20 18:00N 44°43' E 029°31'1 2.8
2018-Jun-20 17:30N 44°43' E 029°29'2 3.2
2018-Jun-20 17:00N 44°42' E 029°27'2 3.3
2018-Jun-20 16:30N 44°42' E 029°25'1 1.2
2018-Jun-20 16:00N 44°41' E 029°24'2 3.2
2018-Jun-20 15:30N 44°42' E 029°26'2 3.3
2018-Jun-20 15:00N 44°42' E 029°29'2 3.4
2018-Jun-20 14:30N 44°43' E 029°31'0 0.7
2018-Jun-20 14:00N 44°43' E 029°31'2 3.3
2018-Jun-20 13:30N 44°43' E 029°29'2 3.4
2018-Jun-20 12:58N 44°42' E 029°26'2 3.2
2018-Jun-20 12:30N 44°41' E 029°24'1 2.4
2018-Jun-20 11:59N 44°41' E 029°23'2 3.4
2018-Jun-20 11:30N 44°41' E 029°25'2 3.3
2018-Jun-20 10:51N 44°42' E 029°28'2 3.6
2018-Jun-20 10:18N 44°42' E 029°30'4 2.3
2018-Jun-20 08:38N 44°42' E 029°25'1 3.6
2018-Jun-20 08:26N 44°41' E 029°24'1 3.0
2018-Jun-20 07:59N 44°41' E 029°23'3 3.4
2018-Jun-20 07:11N 44°40' E 029°19'1 3.4
2018-Jun-20 07:00N 44°40' E 029°18'1 2.8
2018-Jun-20 06:30N 44°39' E 029°16'5 3.2
2018-Jun-20 05:01N 44°37' E 029°11'0 3.5
2018-Jun-20 04:59N 44°37' E 029°10'2 3.3
2018-Jun-20 04:26N 44°36' E 029°08'3 2.8
2018-Jun-20 03:17N 44°37' E 029°12'1 3.3
2018-Jun-20 03:00N 44°37' E 029°14'2 3.3
2018-Jun-20 02:31N 44°37' E 029°16'2 3.8
2018-Jun-20 02:00N 44°38' E 029°19'2 3.6
2018-Jun-20 01:30N 44°38' E 029°21'2 3.5
2018-Jun-20 01:00N 44°39' E 029°23'2 3.5
2018-Jun-20 00:30N 44°40' E 029°25'2 3.4
2018-Jun-20 00:00N 44°41' E 029°27'1 1.7
2018-Jun-19 23:30N 44°41' E 029°28'1 3.0
2018-Jun-19 23:01N 44°40' E 029°27'2 3.1
2018-Jun-19 22:30N 44°40' E 029°25'2 3.1
2018-Jun-19 22:00N 44°39' E 029°23'2 3.6
2018-Jun-19 21:30N 44°39' E 029°20'2 3.5
2018-Jun-19 21:00N 44°38' E 029°18'2 3.4
2018-Jun-19 20:30N 44°37' E 029°16'2 3.5
2018-Jun-19 20:00N 44°36' E 029°14'2 3.3
2018-Jun-19 19:30N 44°35' E 029°12'2 3.6
2018-Jun-19 19:00N 44°34' E 029°10'2 3.6
2018-Jun-19 18:30N 44°33' E 029°07'4 8.4
2018-Jun-19 18:00N 44°31' E 029°03'4 8.3
2018-Jun-19 17:30N 44°29' E 028°58'4 8.2
2018-Jun-19 17:00N 44°26' E 028°54'4 7.6
2018-Jun-19 16:30N 44°23' E 028°50'4 7.6
2018-Jun-19 16:01N 44°21' E 028°46'3 6.8
2018-Jun-19 15:31N 44°20' E 028°41'2 4.2
2018-Jun-19 15:00N 44°20' E 028°38'0 0.0
2018-Jun-19 14:30N 44°20' E 028°38'0 0.0
2018-Jun-19 14:00N 44°20' E 028°38'0 0.0
2018-Jun-19 13:30N 44°20' E 028°38'0 0.0
2018-Jun-19 13:00N 44°20' E 028°38'0 0.0
2018-Jun-19 12:30N 44°20' E 028°38'0 0.0
2018-Jun-19 12:00N 44°20' E 028°38'0 0.0
2018-Jun-19 11:30N 44°20' E 028°38'0 0.0
2018-Jun-19 11:00N 44°20' E 028°38'0 0.0
2018-Jun-19 10:30N 44°20' E 028°38'0 0.0
2018-Jun-19 10:00N 44°20' E 028°38'0 0.0
2018-Jun-19 09:30N 44°20' E 028°38'0 0.0
2018-Jun-19 09:00N 44°20' E 028°38'0 0.0
2018-Jun-19 08:30N 44°20' E 028°38'0 0.0
2018-Jun-19 08:00N 44°20' E 028°38'0 0.0
2018-Jun-19 07:30N 44°20' E 028°38'0 0.0
2018-Jun-19 07:01N 44°20' E 028°38'0 0.0
2018-Jun-19 06:30N 44°20' E 028°38'0 0.0
2018-Jun-19 06:00N 44°20' E 028°38'0 0.0
2018-Jun-19 05:30N 44°20' E 028°38'0 0.0
2018-Jun-19 05:00N 44°20' E 028°38'0 0.0
2018-Jun-19 04:30N 44°20' E 028°38'0 0.0
2018-Jun-19 04:00N 44°20' E 028°38'0 0.0
2018-Jun-19 03:30N 44°20' E 028°38'0 0.0
2018-Jun-19 03:00N 44°20' E 028°38'0 0.0
2018-Jun-19 02:30N 44°20' E 028°38'0 0.0
2018-Jun-19 02:00N 44°20' E 028°38'0 0.0
2018-Jun-19 01:30N 44°20' E 028°38'0 0.0
2018-Jun-19 01:00N 44°20' E 028°38'0 0.0
2018-Jun-19 00:30N 44°20' E 028°38'0 0.0
2018-Jun-19 00:00N 44°20' E 028°38'0 0.0
2018-Jun-18 23:31N 44°20' E 028°38'0 0.0
2018-Jun-18 23:00N 44°20' E 028°38'0 0.0
2018-Jun-18 22:30N 44°20' E 028°38'0 0.0
2018-Jun-18 22:00N 44°20' E 028°38'0 0.0
2018-Jun-18 21:30N 44°20' E 028°38'0 0.0
2018-Jun-18 21:00N 44°20' E 028°38'0 0.0
2018-Jun-18 20:30N 44°20' E 028°38'0 0.0
2018-Jun-18 20:01N 44°20' E 028°38'0 0.0
2018-Jun-18 19:30N 44°20' E 028°38'0 0.0
2018-Jun-18 19:00N 44°20' E 028°38'0 0.0
2018-Jun-18 18:30N 44°20' E 028°38'0 0.0
2018-Jun-18 18:00N 44°20' E 028°38'0 0.0
2018-Jun-18 17:30N 44°20' E 028°38'0 0.0
2018-Jun-18 17:00N 44°20' E 028°38'0 0.0
2018-Jun-18 16:30N 44°20' E 028°38'0 0.0
2018-Jun-18 16:00N 44°20' E 028°38'0 0.0
2018-Jun-18 15:30N 44°20' E 028°38'0 0.0
2018-Jun-18 15:00N 44°20' E 028°38'0 0.0
2018-Jun-18 14:30N 44°20' E 028°38'0 0.0
2018-Jun-18 14:00N 44°20' E 028°38'0 0.0
2018-Jun-18 13:30N 44°20' E 028°38'0 0.0
2018-Jun-18 13:00N 44°20' E 028°38'0 0.0
2018-Jun-18 12:30N 44°20' E 028°38'0 0.0
2018-Jun-18 12:00N 44°20' E 028°38'0 0.0
2018-Jun-18 11:30N 44°20' E 028°38'0 0.0
2018-Jun-18 10:59N 44°20' E 028°38'0 0.0
2018-Jun-18 10:30N 44°20' E 028°38'0 0.0
2018-Jun-18 10:00N 44°20' E 028°38'0 0.0
2018-Jun-18 09:30N 44°20' E 028°38'0 0.0
2018-Jun-18 09:00N 44°20' E 028°38'0 0.0
2018-Jun-18 08:30N 44°20' E 028°38'0 0.0
2018-Jun-18 08:00N 44°20' E 028°38'0 0.0
2018-Jun-18 07:30N 44°20' E 028°38'0 0.0
2018-Jun-18 07:00N 44°20' E 028°38'0 0.0
2018-Jun-18 06:30N 44°20' E 028°38'0 0.0
2018-Jun-18 06:00N 44°20' E 028°38'0 0.0
2018-Jun-18 05:30N 44°20' E 028°38'0 0.0
2018-Jun-18 05:00N 44°20' E 028°38'0 0.0
2018-Jun-18 04:30N 44°20' E 028°38'0 0.0
2018-Jun-18 04:00N 44°20' E 028°38'0 0.0
2018-Jun-18 03:31N 44°20' E 028°38'0 0.0
2018-Jun-18 03:00N 44°20' E 028°38'0 0.0
2018-Jun-18 02:30N 44°20' E 028°38'0 0.0
2018-Jun-18 02:00N 44°20' E 028°38'0 0.0
2018-Jun-18 01:30N 44°20' E 028°38'0 0.0
2018-Jun-18 01:00N 44°20' E 028°38'0 0.0
2018-Jun-18 00:30N 44°20' E 028°38'0 0.0
2018-Jun-18 00:00N 44°20' E 028°38'0 0.0
2018-Jun-17 23:30N 44°20' E 028°38'0 0.0
2018-Jun-17 23:00N 44°20' E 028°38'0 0.0
2018-Jun-17 22:30N 44°20' E 028°38'0 0.0
2018-Jun-17 22:00N 44°20' E 028°38'0 0.0
2018-Jun-17 21:30N 44°20' E 028°38'0 0.0
2018-Jun-17 21:00N 44°20' E 028°38'0 0.0
2018-Jun-17 20:30N 44°20' E 028°38'0 0.0
2018-Jun-17 20:00N 44°20' E 028°38'0 0.0
2018-Jun-17 19:30N 44°20' E 028°38'0 0.0
2018-Jun-17 19:00N 44°20' E 028°38'0 0.0
2018-Jun-17 18:30N 44°20' E 028°38'0 0.0
2018-Jun-17 18:00N 44°20' E 028°38'0 0.0
2018-Jun-17 17:30N 44°20' E 028°38'0 0.0
2018-Jun-17 17:00N 44°20' E 028°38'0 0.0
2018-Jun-17 16:30N 44°20' E 028°38'0 0.0
2018-Jun-17 16:00N 44°20' E 028°38'0 0.0
2018-Jun-17 15:29N 44°20' E 028°38'0 0.0
2018-Jun-17 15:00N 44°20' E 028°38'0 0.0
2018-Jun-17 14:30N 44°20' E 028°38'0 0.0
2018-Jun-17 14:00N 44°20' E 028°38'0 0.0
2018-Jun-17 13:30N 44°20' E 028°38'0 0.0
2018-Jun-17 13:01N 44°20' E 028°38'0 0.0
2018-Jun-17 12:30N 44°20' E 028°38'0 0.0
2018-Jun-17 12:00N 44°20' E 028°38'0 0.0
2018-Jun-17 11:30N 44°20' E 028°38'0 0.0
2018-Jun-17 11:00N 44°20' E 028°38'0 0.0
2018-Jun-17 10:30N 44°20' E 028°38'0 0.0
2018-Jun-17 10:00N 44°20' E 028°38'0 0.0
2018-Jun-17 09:30N 44°20' E 028°38'0 0.0
2018-Jun-17 09:00N 44°20' E 028°38'0 0.0
2018-Jun-17 08:30N 44°20' E 028°38'0 0.0
2018-Jun-17 08:00N 44°20' E 028°38'0 0.0
2018-Jun-17 07:30N 44°20' E 028°38'0 0.0
2018-Jun-17 07:00N 44°20' E 028°38'0 0.0
2018-Jun-17 06:30N 44°20' E 028°38'0 0.0
2018-Jun-17 06:00N 44°20' E 028°38'0 0.0
2018-Jun-17 05:31N 44°20' E 028°38'0 0.0
2018-Jun-17 05:00N 44°20' E 028°38'0 0.0
2018-Jun-17 04:30N 44°20' E 028°38'0 0.0
2018-Jun-17 04:00N 44°20' E 028°38'0 0.0
2018-Jun-17 03:30N 44°20' E 028°38'0 0.0
2018-Jun-17 03:00N 44°20' E 028°38'0 0.0
2018-Jun-17 02:30N 44°20' E 028°38'0 0.0
2018-Jun-17 02:00N 44°20' E 028°38'0 0.0
2018-Jun-17 01:30N 44°20' E 028°38'0 0.0
2018-Jun-17 01:00N 44°20' E 028°38'0 0.0
2018-Jun-17 00:30N 44°20' E 028°38'0 0.0
2018-Jun-17 00:00N 44°20' E 028°38'0 0.0
2018-Jun-16 23:30N 44°20' E 028°38'0 0.0
2018-Jun-16 23:00N 44°20' E 028°38'0 0.0
2018-Jun-16 22:30N 44°20' E 028°38'0 0.0
2018-Jun-16 22:01N 44°20' E 028°38'0 0.0
2018-Jun-16 21:30N 44°20' E 028°38'0 0.0
2018-Jun-16 21:00N 44°20' E 028°38'0 0.0
2018-Jun-16 20:30N 44°20' E 028°38'0 0.0
2018-Jun-16 20:00N 44°20' E 028°38'0 0.0
2018-Jun-16 19:30N 44°20' E 028°38'0 0.0
2018-Jun-16 19:00N 44°20' E 028°38'0 0.0
2018-Jun-16 18:30N 44°20' E 028°38'0 0.0
2018-Jun-16 18:00N 44°20' E 028°38'0 0.0
2018-Jun-16 17:30N 44°20' E 028°38'0 0.0
2018-Jun-16 17:00N 44°20' E 028°38'0 0.0
2018-Jun-16 16:30N 44°20' E 028°38'0 0.0
2018-Jun-16 16:00N 44°20' E 028°38'0 0.0
2018-Jun-16 15:30N 44°20' E 028°38'0 0.0
2018-Jun-16 15:00N 44°20' E 028°38'0 0.0
2018-Jun-16 14:30N 44°20' E 028°38'0 0.0
2018-Jun-16 14:00N 44°20' E 028°38'0 0.0
2018-Jun-16 13:30N 44°20' E 028°38'0 0.0
2018-Jun-16 13:00N 44°20' E 028°38'0 0.0
2018-Jun-16 12:31N 44°20' E 028°38'0 0.0
2018-Jun-16 12:00N 44°20' E 028°38'0 0.0
2018-Jun-16 11:30N 44°20' E 028°38'0 0.0
2018-Jun-16 11:00N 44°20' E 028°38'0 0.0
2018-Jun-16 10:30N 44°20' E 028°38'0 0.0
2018-Jun-16 10:00N 44°20' E 028°38'0 0.0
2018-Jun-16 09:30N 44°20' E 028°38'0 0.0
2018-Jun-16 09:00N 44°20' E 028°38'0 0.0
2018-Jun-16 08:30N 44°20' E 028°38'0 0.0
2018-Jun-16 08:00N 44°20' E 028°38'0 0.0
2018-Jun-16 07:30N 44°20' E 028°38'0 0.0
2018-Jun-16 07:00N 44°20' E 028°38'0 0.0
2018-Jun-16 06:30N 44°20' E 028°38'0 0.0
2018-Jun-16 06:00N 44°20' E 028°38'0 0.0
2018-Jun-16 05:30N 44°20' E 028°38'0 0.0
2018-Jun-16 05:00N 44°20' E 028°38'0 0.0
2018-Jun-16 04:30N 44°20' E 028°38'0 0.0
2018-Jun-16 04:00N 44°20' E 028°38'0 0.0
2018-Jun-16 03:30N 44°20' E 028°38'0 0.0
2018-Jun-16 03:00N 44°20' E 028°38'0 0.0
2018-Jun-16 02:30N 44°20' E 028°38'0 0.0
2018-Jun-16 02:00N 44°20' E 028°38'2 3.6
2018-Jun-16 01:30N 44°20' E 028°41'4 7.2
2018-Jun-16 01:00N 44°21' E 028°46'4 8.5
2018-Jun-16 00:30N 44°23' E 028°51'4 8.2
2018-Jun-16 00:00N 44°25' E 028°56'4 8.1
2018-Jun-15 23:30N 44°28' E 029°00'4 8.0
2018-Jun-15 23:00N 44°30' E 029°05'4 8.0
2018-Jun-15 22:30N 44°33' E 029°09'4 7.9
2018-Jun-15 22:00N 44°34' E 029°14'4 8.1
2018-Jun-15 21:30N 44°37' E 029°18'4 7.6
2018-Jun-15 21:01N 44°39' E 029°23'2 4.4
2018-Jun-15 20:30N 44°41' E 029°25'1 2.3
2018-Jun-15 20:00N 44°42' E 029°26'2 3.4
2018-Jun-15 19:30N 44°42' E 029°28'2 3.4
2018-Jun-15 19:00N 44°43' E 029°30'2 3.2
2018-Jun-15 18:30N 44°43' E 029°32'1 2.6
2018-Jun-15 18:00N 44°42' E 029°31'2 3.1
2018-Jun-15 17:30N 44°41' E 029°29'2 3.4
2018-Jun-15 17:00N 44°40' E 029°27'2 3.4
2018-Jun-15 16:21N 44°39' E 029°24'1 3.4
2018-Jun-15 16:00N 44°39' E 029°23'1 1.5
2018-Jun-15 15:30N 44°39' E 029°22'2 2.9
2018-Jun-15 14:58N 44°39' E 029°24'2 3.3
2018-Jun-15 14:29N 44°40' E 029°26'2 3.3
2018-Jun-15 14:00N 44°41' E 029°28'2 3.3
2018-Jun-15 13:30N 44°41' E 029°30'2 3.4
2018-Jun-15 13:00N 44°42' E 029°32'0 0.4
2018-Jun-15 12:30N 44°42' E 029°32'2 3.3
2018-Jun-15 11:59N 44°41' E 029°30'2 3.3
2018-Jun-15 11:30N 44°41' E 029°28'2 3.3
2018-Jun-15 11:00N 44°40' E 029°26'2 3.4
2018-Jun-15 10:30N 44°39' E 029°24'1 2.7
2018-Jun-15 10:00N 44°40' E 029°24'2 3.4
2018-Jun-15 09:30N 44°41' E 029°26'2 3.3
2018-Jun-15 09:00N 44°42' E 029°28'2 3.2
2018-Jun-15 08:30N 44°43' E 029°30'2 3.3
2018-Jun-15 08:00N 44°43' E 029°32'5 2.4
2018-Jun-15 05:49N 44°40' E 029°26'6 2.6
2018-Jun-15 03:33N 44°40' E 029°34'0 8.9
2018-Jun-15 03:30N 44°40' E 029°34'3 5.2
2018-Jun-15 03:00N 44°38' E 029°37'1 1.4
2018-Jun-15 02:29N 44°39' E 029°37'1 1.4
2018-Jun-15 02:00N 44°40' E 029°37'1 1.2
2018-Jun-15 01:20N 44°41' E 029°37'0 0.8
2018-Jun-15 00:56N 44°41' E 029°37'0 0.8
2018-Jun-15 00:29N 44°41' E 029°36'4 9.1
2018-Jun-15 00:00N 44°40' E 029°30'5 9.2
2018-Jun-14 23:30N 44°39' E 029°24'7 9.3
2018-Jun-14 22:45N 44°37' E 029°15'3 9.3
2018-Jun-14 22:28N 44°35' E 029°12'4 8.7
2018-Jun-14 21:57N 44°33' E 029°06'5 9.2
2018-Jun-14 21:24N 44°30' E 029°00'4 9.7
2018-Jun-14 20:58N 44°28' E 028°56'4 9.6
2018-Jun-14 20:30N 44°25' E 028°51'5 9.3
2018-Jun-14 20:00N 44°22' E 028°46'4 8.1
2018-Jun-14 19:30N 44°19' E 028°41'2 4.4
2018-Jun-14 19:00N 44°20' E 028°38'0 0.0
2018-Jun-14 18:30N 44°20' E 028°38'0 0.0
2018-Jun-14 18:01N 44°20' E 028°38'0 0.0
2018-Jun-14 17:29N 44°20' E 028°38'0 0.0
2018-Jun-14 16:59N 44°20' E 028°38'0 0.0
2018-Jun-14 16:30N 44°20' E 028°38'0 0.0
2018-Jun-14 16:00N 44°20' E 028°38'0 0.0
2018-Jun-14 15:30N 44°20' E 028°38'0 0.0
2018-Jun-14 15:00N 44°20' E 028°38'0 0.0
2018-Jun-14 14:27N 44°20' E 028°38'0 0.0
2018-Jun-14 14:00N 44°20' E 028°38'0 0.0
2018-Jun-14 13:30N 44°20' E 028°38'0 0.0
2018-Jun-14 13:00N 44°20' E 028°38'0 0.0
2018-Jun-14 12:30N 44°20' E 028°38'0 0.0
2018-Jun-14 12:00N 44°20' E 028°38'0 0.0
2018-Jun-14 11:30N 44°20' E 028°38'0 0.0
2018-Jun-14 11:00N 44°20' E 028°38'0 0.0
2018-Jun-14 10:30N 44°20' E 028°38'0 0.0
2018-Jun-14 10:00N 44°20' E 028°38'0 0.0
2018-Jun-14 09:30N 44°20' E 028°38'0 0.0
2018-Jun-14 09:01N 44°20' E 028°38'0 0.0
2018-Jun-14 08:30N 44°20' E 028°38'0 0.0
2018-Jun-14 08:00N 44°20' E 028°38'0 0.0
2018-Jun-14 07:30N 44°20' E 028°38'0 0.0
2018-Jun-14 07:00N 44°20' E 028°38'0 0.0
2018-Jun-14 06:30N 44°20' E 028°38'0 0.0
2018-Jun-14 06:00N 44°20' E 028°38'0 0.0
2018-Jun-14 05:30N 44°20' E 028°38'0 0.0
2018-Jun-14 05:00N 44°20' E 028°38'0 0.0
2018-Jun-14 04:30N 44°20' E 028°38'0 0.0
2018-Jun-14 04:00N 44°20' E 028°38'0 0.0
2018-Jun-14 03:30N 44°20' E 028°38'0 0.0
2018-Jun-14 03:00N 44°20' E 028°38'0 0.0
2018-Jun-14 02:30N 44°20' E 028°38'0 0.0
2018-Jun-14 02:00N 44°20' E 028°38'0 0.0
2018-Jun-14 01:30N 44°20' E 028°38'0 0.0
2018-Jun-14 01:00N 44°20' E 028°38'0 0.0
2018-Jun-14 00:30N 44°20' E 028°38'0 0.0
2018-Jun-14 00:00N 44°20' E 028°38'0 0.0
2018-Jun-13 23:30N 44°20' E 028°38'0 0.0
2018-Jun-13 23:00N 44°20' E 028°38'0 0.0
2018-Jun-13 22:30N 44°20' E 028°38'0 0.0
2018-Jun-13 22:00N 44°20' E 028°38'0 0.0
2018-Jun-13 21:30N 44°20' E 028°38'0 0.0
2018-Jun-13 21:00N 44°20' E 028°38'0 0.0
2018-Jun-13 20:30N 44°20' E 028°38'0 0.0
2018-Jun-13 20:00N 44°20' E 028°38'0 0.0
2018-Jun-13 19:30N 44°20' E 028°38'0 0.0
2018-Jun-13 19:00N 44°20' E 028°38'0 0.0
2018-Jun-13 18:30N 44°20' E 028°38'0 0.0
2018-Jun-13 18:00N 44°20' E 028°38'0 0.0
2018-Jun-13 17:30N 44°20' E 028°38'0 0.0
2018-Jun-13 17:00N 44°20' E 028°38'0 0.0
2018-Jun-13 16:30N 44°20' E 028°38'0 0.0
2018-Jun-13 16:00N 44°20' E 028°38'0 0.0
2018-Jun-13 15:30N 44°20' E 028°38'0 0.0
2018-Jun-13 15:00N 44°20' E 028°38'0 0.0
2018-Jun-13 14:30N 44°20' E 028°38'0 0.0
2018-Jun-13 14:00N 44°20' E 028°38'0 0.0
2018-Jun-13 13:30N 44°20' E 028°38'0 0.0
2018-Jun-13 13:00N 44°20' E 028°38'0 0.0
2018-Jun-13 12:30N 44°20' E 028°38'0 0.0
2018-Jun-13 12:00N 44°20' E 028°38'0 0.0
2018-Jun-13 11:30N 44°20' E 028°38'0 0.0
2018-Jun-13 11:00N 44°20' E 028°38'0 0.0
2018-Jun-13 10:30N 44°20' E 028°38'0 0.0
2018-Jun-13 10:00N 44°20' E 028°38'0 0.0
2018-Jun-13 09:30N 44°20' E 028°38'0 0.0
2018-Jun-13 09:00N 44°20' E 028°38'0 0.0
2018-Jun-13 08:30N 44°20' E 028°38'0 0.0
2018-Jun-13 08:00N 44°20' E 028°38'0 0.0
2018-Jun-13 07:30N 44°20' E 028°38'0 0.0
2018-Jun-13 07:00N 44°20' E 028°38'0 0.0
2018-Jun-13 06:30N 44°20' E 028°38'0 0.0
2018-Jun-13 05:45N 44°20' E 028°38'0 0.0
2018-Jun-13 05:28N 44°20' E 028°38'0 0.0
2018-Jun-13 05:00N 44°20' E 028°38'0 0.0
2018-Jun-13 04:30N 44°20' E 028°38'0 0.0
2018-Jun-13 04:00N 44°20' E 028°38'0 0.0
2018-Jun-13 03:30N 44°20' E 028°38'0 0.0
2018-Jun-13 03:00N 44°20' E 028°38'0 0.0
2018-Jun-13 02:30N 44°20' E 028°38'0 0.0
2018-Jun-13 02:00N 44°20' E 028°38'0 0.0
2018-Jun-13 01:30N 44°20' E 028°38'0 0.0
2018-Jun-13 01:00N 44°20' E 028°38'0 0.0
2018-Jun-13 00:30N 44°20' E 028°38'0 0.0
2018-Jun-12 23:59N 44°20' E 028°38'0 0.0
2018-Jun-12 23:30N 44°20' E 028°38'0 0.0
2018-Jun-12 23:00N 44°20' E 028°38'0 0.0
2018-Jun-12 22:30N 44°20' E 028°38'0 0.0
2018-Jun-12 22:00N 44°20' E 028°38'0 0.0
2018-Jun-12 21:30N 44°20' E 028°38'0 0.0
2018-Jun-12 21:00N 44°20' E 028°38'0 0.0
2018-Jun-12 20:30N 44°20' E 028°38'0 0.0
2018-Jun-12 20:00N 44°20' E 028°38'0 0.0
2018-Jun-12 19:30N 44°20' E 028°38'0 0.0
2018-Jun-12 19:00N 44°20' E 028°38'0 0.0
2018-Jun-12 18:30N 44°20' E 028°38'0 0.0
2018-Jun-12 17:55N 44°20' E 028°38'0 0.0
2018-Jun-12 17:21N 44°20' E 028°38'0 0.0
2018-Jun-12 17:00N 44°20' E 028°38'0 0.0
2018-Jun-12 16:30N 44°20' E 028°38'0 0.0
2018-Jun-12 16:00N 44°20' E 028°38'0 0.0
2018-Jun-12 15:30N 44°20' E 028°38'0 0.0
2018-Jun-12 15:00N 44°20' E 028°38'0 0.0
2018-Jun-12 14:30N 44°20' E 028°38'0 0.0
2018-Jun-12 14:00N 44°20' E 028°38'0 0.0
2018-Jun-12 13:30N 44°20' E 028°38'0 0.0
2018-Jun-12 13:00N 44°20' E 028°38'0 0.0
2018-Jun-12 12:30N 44°20' E 028°38'0 0.0
2018-Jun-12 12:00N 44°20' E 028°38'0 0.0
2018-Jun-12 11:30N 44°20' E 028°38'0 0.0
2018-Jun-12 11:00N 44°20' E 028°38'0 0.0
2018-Jun-12 10:30N 44°20' E 028°38'0 0.0
2018-Jun-12 10:00N 44°20' E 028°38'0 0.0
2018-Jun-12 09:27N 44°20' E 028°38'0 0.0
2018-Jun-12 08:59N 44°20' E 028°38'0 0.0
2018-Jun-12 08:30N 44°20' E 028°38'0 0.0
2018-Jun-12 08:00N 44°20' E 028°38'0 0.0
2018-Jun-12 07:30N 44°20' E 028°38'0 0.0
2018-Jun-12 07:00N 44°20' E 028°38'0 0.0
2018-Jun-12 06:30N 44°20' E 028°38'0 0.0
2018-Jun-12 06:00N 44°20' E 028°38'0 0.0
2018-Jun-12 05:30N 44°20' E 028°38'0 0.0
2018-Jun-12 05:00N 44°20' E 028°38'0 0.0
2018-Jun-12 04:30N 44°20' E 028°38'0 0.0
2018-Jun-12 04:00N 44°20' E 028°38'0 0.0
2018-Jun-12 03:30N 44°20' E 028°38'0 0.0
2018-Jun-12 03:00N 44°20' E 028°38'0 0.0
2018-Jun-12 02:30N 44°20' E 028°38'0 0.0
2018-Jun-12 02:00N 44°20' E 028°38'0 0.0
2018-Jun-12 01:30N 44°20' E 028°38'0 0.0
2018-Jun-12 01:00N 44°20' E 028°38'0 0.0
2018-Jun-12 00:30N 44°20' E 028°38'0 0.0
2018-Jun-12 00:00N 44°20' E 028°38'0 0.0
2018-Jun-11 23:30N 44°20' E 028°38'0 0.0
2018-Jun-11 23:00N 44°20' E 028°38'0 0.0
2018-Jun-11 22:30N 44°20' E 028°38'0 0.0
2018-Jun-11 22:00N 44°20' E 028°38'0 0.0
2018-Jun-11 21:30N 44°20' E 028°38'0 0.0
2018-Jun-11 21:00N 44°20' E 028°38'0 0.0
2018-Jun-11 20:30N 44°20' E 028°38'0 0.0
2018-Jun-11 20:00N 44°20' E 028°38'0 0.0
2018-Jun-11 19:30N 44°20' E 028°38'0 0.0
2018-Jun-11 19:00N 44°20' E 028°38'0 0.0
2018-Jun-11 18:30N 44°20' E 028°38'0 0.0
2018-Jun-11 18:00N 44°20' E 028°38'0 0.0
2018-Jun-11 17:30N 44°20' E 028°38'0 0.0
2018-Jun-11 17:00N 44°20' E 028°38'0 0.0
2018-Jun-11 16:30N 44°20' E 028°38'0 0.0
2018-Jun-11 16:00N 44°20' E 028°38'0 0.0
2018-Jun-11 15:30N 44°20' E 028°38'0 0.0
2018-Jun-11 15:00N 44°20' E 028°38'0 0.0
2018-Jun-11 14:27N 44°20' E 028°38'0 0.0
2018-Jun-11 14:00N 44°20' E 028°38'0 0.0
2018-Jun-11 13:30N 44°20' E 028°38'0 0.0
2018-Jun-11 13:00N 44°20' E 028°38'0 0.0
2018-Jun-11 12:30N 44°20' E 028°38'0 0.0
2018-Jun-11 12:00N 44°20' E 028°38'0 0.0
2018-Jun-11 11:30N 44°20' E 028°38'0 0.0
2018-Jun-11 11:00N 44°20' E 028°38'0 0.0
2018-Jun-11 10:30N 44°20' E 028°38'0 0.0
2018-Jun-11 10:00N 44°20' E 028°38'0 0.0
2018-Jun-11 09:30N 44°20' E 028°38'0 0.0
2018-Jun-11 09:00N 44°20' E 028°38'0 0.0
2018-Jun-11 08:30N 44°20' E 028°38'0 0.0
2018-Jun-11 08:00N 44°20' E 028°38'0 0.0
2018-Jun-11 07:30N 44°20' E 028°38'0 0.0
2018-Jun-11 07:00N 44°20' E 028°38'0 0.0
2018-Jun-11 06:30N 44°20' E 028°38'0 0.0
2018-Jun-11 06:00N 44°20' E 028°38'0 0.0
2018-Jun-11 05:30N 44°20' E 028°38'0 0.0
2018-Jun-11 05:00N 44°20' E 028°38'0 0.0
2018-Jun-11 04:30N 44°20' E 028°38'0 0.0
2018-Jun-11 04:00N 44°20' E 028°38'0 0.0
2018-Jun-11 03:30N 44°20' E 028°38'0 0.0
2018-Jun-11 03:00N 44°20' E 028°38'0 0.0
2018-Jun-11 02:30N 44°20' E 028°38'0 0.0
2018-Jun-11 02:00N 44°20' E 028°38'0 0.0
2018-Jun-11 01:30N 44°20' E 028°38'0 0.0
2018-Jun-11 01:00N 44°20' E 028°38'0 0.0
2018-Jun-11 00:30N 44°20' E 028°38'0 0.0
2018-Jun-11 00:00N 44°20' E 028°38'0 0.0
2018-Jun-10 23:30N 44°20' E 028°38'0 0.0
2018-Jun-10 23:00N 44°20' E 028°38'0 0.0
2018-Jun-10 22:30N 44°20' E 028°38'0 0.0
2018-Jun-10 22:00N 44°20' E 028°38'2 3.4
2018-Jun-10 21:30N 44°20' E 028°41'4 8.7
2018-Jun-10 21:00N 44°16' E 028°43'4 8.8
2018-Jun-10 20:30N 44°11' E 028°43'1 2.5
2018-Jun-10 20:00N 44°13' E 028°43'2 3.2
2018-Jun-10 19:30N 44°14' E 028°43'2 3.0
2018-Jun-10 19:00N 44°16' E 028°43'  
Track history (hours):
 
Tides and Currents Weather Stations Pressure Air Temp Water Temp Dewpoint Dewpoint Depression Visibility Wind Speed Wind Dir Waves Ship Positions

Flamingo 4

Last reported at 2018-Jun-20 18:59 UTC. Time now 2018-Jun-20 19:01 UTC.
Position N 44°42' E 029°27'.

Length 25 m.

Type: Fishing. MMSI: 264900113.

Date/timePositionNaut miles runAvg speedWind from/ knotsBaromVisibWave heightAir tempDewpointWater temp
2018-Jun-20 18:59N 44°42' E 029°27'2 3.3
2018-Jun-20 18:30N 44°43' E 029°29'2 3.6
2018-Jun-20 18:00N 44°43' E 029°31'1 2.8
2018-Jun-20 17:30N 44°43' E 029°29'2 3.2
2018-Jun-20 17:00N 44°42' E 029°27'2 3.3
2018-Jun-20 16:30N 44°42' E 029°25'1 1.2
2018-Jun-20 16:00N 44°41' E 029°24'2 3.2
2018-Jun-20 15:30N 44°42' E 029°26'2 3.3
2018-Jun-20 15:00N 44°42' E 029°29'2 3.4
2018-Jun-20 14:30N 44°43' E 029°31'0 0.7
2018-Jun-20 14:00N 44°43' E 029°31'2 3.3
2018-Jun-20 13:30N 44°43' E 029°29'2 3.4
2018-Jun-20 12:58N 44°42' E 029°26'2 3.2
2018-Jun-20 12:30N 44°41' E 029°24'1 2.4
2018-Jun-20 11:59N 44°41' E 029°23'2 3.4
2018-Jun-20 11:30N 44°41' E 029°25'2 3.3
2018-Jun-20 10:51N 44°42' E 029°28'2 3.6
2018-Jun-20 10:18N 44°42' E 029°30'4 2.3
2018-Jun-20 08:38N 44°42' E 029°25'1 3.6
2018-Jun-20 08:26N 44°41' E 029°24'1 3.0
2018-Jun-20 07:59N 44°41' E 029°23'3 3.4
2018-Jun-20 07:11N 44°40' E 029°19'1 3.4
2018-Jun-20 07:00N 44°40' E 029°18'1 2.8
2018-Jun-20 06:30N 44°39' E 029°16'5 3.2
2018-Jun-20 05:01N 44°37' E 029°11'0 3.5
2018-Jun-20 04:59N 44°37' E 029°10'2 3.3
2018-Jun-20 04:26N 44°36' E 029°08'3 2.8
2018-Jun-20 03:17N 44°37' E 029°12'1 3.3
2018-Jun-20 03:00N 44°37' E 029°14'2 3.3
2018-Jun-20 02:31N 44°37' E 029°16'2 3.8
2018-Jun-20 02:00N 44°38' E 029°19'2 3.6
2018-Jun-20 01:30N 44°38' E 029°21'2 3.5
2018-Jun-20 01:00N 44°39' E 029°23'2 3.5
2018-Jun-20 00:30N 44°40' E 029°25'2 3.4
2018-Jun-20 00:00N 44°41' E 029°27'1 1.7
2018-Jun-19 23:30N 44°41' E 029°28'1 3.0
2018-Jun-19 23:01N 44°40' E 029°27'2 3.1
2018-Jun-19 22:30N 44°40' E 029°25'2 3.1
2018-Jun-19 22:00N 44°39' E 029°23'2 3.6
2018-Jun-19 21:30N 44°39' E 029°20'2 3.5
2018-Jun-19 21:00N 44°38' E 029°18'2 3.4
2018-Jun-19 20:30N 44°37' E 029°16'2 3.5
2018-Jun-19 20:00N 44°36' E 029°14'2 3.3
2018-Jun-19 19:30N 44°35' E 029°12'2 3.6
2018-Jun-19 19:00N 44°34' E 029°10'2 3.6
2018-Jun-19 18:30N 44°33' E 029°07'4 8.4
2018-Jun-19 18:00N 44°31' E 029°03'4 8.3
2018-Jun-19 17:30N 44°29' E 028°58'4 8.2
2018-Jun-19 17:00N 44°26' E 028°54'4 7.6
2018-Jun-19 16:30N 44°23' E 028°50'4 7.6
2018-Jun-19 16:01N 44°21' E 028°46'3 6.8
2018-Jun-19 15:31N 44°20' E 028°41'2 4.2
2018-Jun-19 15:00N 44°20' E 028°38'0 0.0
2018-Jun-19 14:30N 44°20' E 028°38'0 0.0
2018-Jun-19 14:00N 44°20' E 028°38'0 0.0
2018-Jun-19 13:30N 44°20' E 028°38'0 0.0
2018-Jun-19 13:00N 44°20' E 028°38'0 0.0
2018-Jun-19 12:30N 44°20' E 028°38'0 0.0
2018-Jun-19 12:00N 44°20' E 028°38'0 0.0
2018-Jun-19 11:30N 44°20' E 028°38'0 0.0
2018-Jun-19 11:00N 44°20' E 028°38'0 0.0
2018-Jun-19 10:30N 44°20' E 028°38'0 0.0
2018-Jun-19 10:00N 44°20' E 028°38'0 0.0
2018-Jun-19 09:30N 44°20' E 028°38'0 0.0
2018-Jun-19 09:00N 44°20' E 028°38'0 0.0
2018-Jun-19 08:30N 44°20' E 028°38'0 0.0
2018-Jun-19 08:00N 44°20' E 028°38'0 0.0
2018-Jun-19 07:30N 44°20' E 028°38'0 0.0
2018-Jun-19 07:01N 44°20' E 028°38'0 0.0
2018-Jun-19 06:30N 44°20' E 028°38'0 0.0
2018-Jun-19 06:00N 44°20' E 028°38'0 0.0
2018-Jun-19 05:30N 44°20' E 028°38'0 0.0
2018-Jun-19 05:00N 44°20' E 028°38'0 0.0
2018-Jun-19 04:30N 44°20' E 028°38'0 0.0
2018-Jun-19 04:00N 44°20' E 028°38'0 0.0
2018-Jun-19 03:30N 44°20' E 028°38'0 0.0
2018-Jun-19 03:00N 44°20' E 028°38'0 0.0
2018-Jun-19 02:30N 44°20' E 028°38'0 0.0
2018-Jun-19 02:00N 44°20' E 028°38'0 0.0
2018-Jun-19 01:30N 44°20' E 028°38'0 0.0
2018-Jun-19 01:00N 44°20' E 028°38'0 0.0
2018-Jun-19 00:30N 44°20' E 028°38'0 0.0
2018-Jun-19 00:00N 44°20' E 028°38'0 0.0
2018-Jun-18 23:31N 44°20' E 028°38'0 0.0
2018-Jun-18 23:00N 44°20' E 028°38'0 0.0
2018-Jun-18 22:30N 44°20' E 028°38'0 0.0
2018-Jun-18 22:00N 44°20' E 028°38'0 0.0
2018-Jun-18 21:30N 44°20' E 028°38'0 0.0
2018-Jun-18 21:00N 44°20' E 028°38'0 0.0
2018-Jun-18 20:30N 44°20' E 028°38'0 0.0
2018-Jun-18 20:01N 44°20' E 028°38'0 0.0
2018-Jun-18 19:30N 44°20' E 028°38'0 0.0
2018-Jun-18 19:00N 44°20' E 028°38'0 0.0
2018-Jun-18 18:30N 44°20' E 028°38'0 0.0
2018-Jun-18 18:00N 44°20' E 028°38'0 0.0
2018-Jun-18 17:30N 44°20' E 028°38'0 0.0
2018-Jun-18 17:00N 44°20' E 028°38'0 0.0
2018-Jun-18 16:30N 44°20' E 028°38'0 0.0
2018-Jun-18 16:00N 44°20' E 028°38'0 0.0
2018-Jun-18 15:30N 44°20' E 028°38'0 0.0
2018-Jun-18 15:00N 44°20' E 028°38'0 0.0
2018-Jun-18 14:30N 44°20' E 028°38'0 0.0
2018-Jun-18 14:00N 44°20' E 028°38'0 0.0
2018-Jun-18 13:30N 44°20' E 028°38'0 0.0
2018-Jun-18 13:00N 44°20' E 028°38'0 0.0
2018-Jun-18 12:30N 44°20' E 028°38'0 0.0
2018-Jun-18 12:00N 44°20' E 028°38'0 0.0
2018-Jun-18 11:30N 44°20' E 028°38'0 0.0
2018-Jun-18 10:59N 44°20' E 028°38'0 0.0
2018-Jun-18 10:30N 44°20' E 028°38'0 0.0
2018-Jun-18 10:00N 44°20' E 028°38'0 0.0
2018-Jun-18 09:30N 44°20' E 028°38'0 0.0
2018-Jun-18 09:00N 44°20' E 028°38'0 0.0
2018-Jun-18 08:30N 44°20' E 028°38'0 0.0
2018-Jun-18 08:00N 44°20' E 028°38'0 0.0
2018-Jun-18 07:30N 44°20' E 028°38'0 0.0
2018-Jun-18 07:00N 44°20' E 028°38'0 0.0
2018-Jun-18 06:30N 44°20' E 028°38'0 0.0
2018-Jun-18 06:00N 44°20' E 028°38'0 0.0
2018-Jun-18 05:30N 44°20' E 028°38'0 0.0
2018-Jun-18 05:00N 44°20' E 028°38'0 0.0
2018-Jun-18 04:30N 44°20' E 028°38'0 0.0
2018-Jun-18 04:00N 44°20' E 028°38'0 0.0
2018-Jun-18 03:31N 44°20' E 028°38'0 0.0
2018-Jun-18 03:00N 44°20' E 028°38'0 0.0
2018-Jun-18 02:30N 44°20' E 028°38'0 0.0
2018-Jun-18 02:00N 44°20' E 028°38'0 0.0
2018-Jun-18 01:30N 44°20' E 028°38'0 0.0
2018-Jun-18 01:00N 44°20' E 028°38'0 0.0
2018-Jun-18 00:30N 44°20' E 028°38'0 0.0
2018-Jun-18 00:00N 44°20' E 028°38'0 0.0
2018-Jun-17 23:30N 44°20' E 028°38'0 0.0
2018-Jun-17 23:00N 44°20' E 028°38'0 0.0
2018-Jun-17 22:30N 44°20' E 028°38'0 0.0
2018-Jun-17 22:00N 44°20' E 028°38'0 0.0
2018-Jun-17 21:30N 44°20' E 028°38'0 0.0
2018-Jun-17 21:00N 44°20' E 028°38'0 0.0
2018-Jun-17 20:30N 44°20' E 028°38'0 0.0
2018-Jun-17 20:00N 44°20' E 028°38'0 0.0
2018-Jun-17 19:30N 44°20' E 028°38'0 0.0
2018-Jun-17 19:00N 44°20' E 028°38'0 0.0
2018-Jun-17 18:30N 44°20' E 028°38'0 0.0
2018-Jun-17 18:00N 44°20' E 028°38'0 0.0
2018-Jun-17 17:30N 44°20' E 028°38'0 0.0
2018-Jun-17 17:00N 44°20' E 028°38'0 0.0
2018-Jun-17 16:30N 44°20' E 028°38'0 0.0
2018-Jun-17 16:00N 44°20' E 028°38'0 0.0
2018-Jun-17 15:29N 44°20' E 028°38'0 0.0
2018-Jun-17 15:00N 44°20' E 028°38'0 0.0
2018-Jun-17 14:30N 44°20' E 028°38'0 0.0
2018-Jun-17 14:00N 44°20' E 028°38'0 0.0
2018-Jun-17 13:30N 44°20' E 028°38'0 0.0
2018-Jun-17 13:01N 44°20' E 028°38'0 0.0
2018-Jun-17 12:30N 44°20' E 028°38'0 0.0
2018-Jun-17 12:00N 44°20' E 028°38'0 0.0
2018-Jun-17 11:30N 44°20' E 028°38'0 0.0
2018-Jun-17 11:00N 44°20' E 028°38'0 0.0
2018-Jun-17 10:30N 44°20' E 028°38'0 0.0
2018-Jun-17 10:00N 44°20' E 028°38'0 0.0
2018-Jun-17 09:30N 44°20' E 028°38'0 0.0
2018-Jun-17 09:00N 44°20' E 028°38'0 0.0
2018-Jun-17 08:30N 44°20' E 028°38'0 0.0
2018-Jun-17 08:00N 44°20' E 028°38'0 0.0
2018-Jun-17 07:30N 44°20' E 028°38'0 0.0
2018-Jun-17 07:00N 44°20' E 028°38'0 0.0
2018-Jun-17 06:30N 44°20' E 028°38'0 0.0
2018-Jun-17 06:00N 44°20' E 028°38'0 0.0
2018-Jun-17 05:31N 44°20' E 028°38'0 0.0
2018-Jun-17 05:00N 44°20' E 028°38'0 0.0
2018-Jun-17 04:30N 44°20' E 028°38'0 0.0
2018-Jun-17 04:00N 44°20' E 028°38'0 0.0
2018-Jun-17 03:30N 44°20' E 028°38'0 0.0
2018-Jun-17 03:00N 44°20' E 028°38'0 0.0
2018-Jun-17 02:30N 44°20' E 028°38'0 0.0
2018-Jun-17 02:00N 44°20' E 028°38'0 0.0
2018-Jun-17 01:30N 44°20' E 028°38'0 0.0
2018-Jun-17 01:00N 44°20' E 028°38'0 0.0
2018-Jun-17 00:30N 44°20' E 028°38'0 0.0
2018-Jun-17 00:00N 44°20' E 028°38'0 0.0
2018-Jun-16 23:30N 44°20' E 028°38'0 0.0
2018-Jun-16 23:00N 44°20' E 028°38'0 0.0
2018-Jun-16 22:30N 44°20' E 028°38'0 0.0
2018-Jun-16 22:01N 44°20' E 028°38'0 0.0
2018-Jun-16 21:30N 44°20' E 028°38'0 0.0
2018-Jun-16 21:00N 44°20' E 028°38'0 0.0
2018-Jun-16 20:30N 44°20' E 028°38'0 0.0
2018-Jun-16 20:00N 44°20' E 028°38'0 0.0
2018-Jun-16 19:30N 44°20' E 028°38'0 0.0
2018-Jun-16 19:00N 44°20' E 028°38'0 0.0
2018-Jun-16 18:30N 44°20' E 028°38'0 0.0
2018-Jun-16 18:00N 44°20' E 028°38'0 0.0
2018-Jun-16 17:30N 44°20' E 028°38'0 0.0
2018-Jun-16 17:00N 44°20' E 028°38'0 0.0
2018-Jun-16 16:30N 44°20' E 028°38'0 0.0
2018-Jun-16 16:00N 44°20' E 028°38'0 0.0
2018-Jun-16 15:30N 44°20' E 028°38'0 0.0
2018-Jun-16 15:00N 44°20' E 028°38'0 0.0
2018-Jun-16 14:30N 44°20' E 028°38'0 0.0
2018-Jun-16 14:00N 44°20' E 028°38'0 0.0
2018-Jun-16 13:30N 44°20' E 028°38'0 0.0
2018-Jun-16 13:00N 44°20' E 028°38'0 0.0
2018-Jun-16 12:31N 44°20' E 028°38'0 0.0
2018-Jun-16 12:00N 44°20' E 028°38'0 0.0
2018-Jun-16 11:30N 44°20' E 028°38'0 0.0
2018-Jun-16 11:00N 44°20' E 028°38'0 0.0
2018-Jun-16 10:30N 44°20' E 028°38'0 0.0
2018-Jun-16 10:00N 44°20' E 028°38'0 0.0
2018-Jun-16 09:30N 44°20' E 028°38'0 0.0
2018-Jun-16 09:00N 44°20' E 028°38'0 0.0
2018-Jun-16 08:30N 44°20' E 028°38'0 0.0
2018-Jun-16 08:00N 44°20' E 028°38'0 0.0
2018-Jun-16 07:30N 44°20' E 028°38'0 0.0
2018-Jun-16 07:00N 44°20' E 028°38'0 0.0
2018-Jun-16 06:30N 44°20' E 028°38'0 0.0
2018-Jun-16 06:00N 44°20' E 028°38'0 0.0
2018-Jun-16 05:30N 44°20' E 028°38'0 0.0
2018-Jun-16 05:00N 44°20' E 028°38'0 0.0
2018-Jun-16 04:30N 44°20' E 028°38'0 0.0
2018-Jun-16 04:00N 44°20' E 028°38'0 0.0
2018-Jun-16 03:30N 44°20' E 028°38'0 0.0
2018-Jun-16 03:00N 44°20' E 028°38'0 0.0
2018-Jun-16 02:30N 44°20' E 028°38'0 0.0
2018-Jun-16 02:00N 44°20' E 028°38'2 3.6
2018-Jun-16 01:30N 44°20' E 028°41'4 7.2
2018-Jun-16 01:00N 44°21' E 028°46'4 8.5
2018-Jun-16 00:30N 44°23' E 028°51'4 8.2
2018-Jun-16 00:00N 44°25' E 028°56'4 8.1
2018-Jun-15 23:30N 44°28' E 029°00'4 8.0
2018-Jun-15 23:00N 44°30' E 029°05'4 8.0
2018-Jun-15 22:30N 44°33' E 029°09'4 7.9
2018-Jun-15 22:00N 44°34' E 029°14'4 8.1
2018-Jun-15 21:30N 44°37' E 029°18'4 7.6
2018-Jun-15 21:01N 44°39' E 029°23'2 4.4
2018-Jun-15 20:30N 44°41' E 029°25'1 2.3
2018-Jun-15 20:00N 44°42' E 029°26'2 3.4
2018-Jun-15 19:30N 44°42' E 029°28'2 3.4
2018-Jun-15 19:00N 44°43' E 029°30'2 3.2
2018-Jun-15 18:30N 44°43' E 029°32'1 2.6
2018-Jun-15 18:00N 44°42' E 029°31'2 3.1
2018-Jun-15 17:30N 44°41' E 029°29'2 3.4
2018-Jun-15 17:00N 44°40' E 029°27'2 3.4
2018-Jun-15 16:21N 44°39' E 029°24'1 3.4
2018-Jun-15 16:00N 44°39' E 029°23'1 1.5
2018-Jun-15 15:30N 44°39' E 029°22'2 2.9
2018-Jun-15 14:58N 44°39' E 029°24'2 3.3
2018-Jun-15 14:29N 44°40' E 029°26'2 3.3
2018-Jun-15 14:00N 44°41' E 029°28'2 3.3
2018-Jun-15 13:30N 44°41' E 029°30'2 3.4
2018-Jun-15 13:00N 44°42' E 029°32'0 0.4
2018-Jun-15 12:30N 44°42' E 029°32'2 3.3
2018-Jun-15 11:59N 44°41' E 029°30'2 3.3
2018-Jun-15 11:30N 44°41' E 029°28'2 3.3
2018-Jun-15 11:00N 44°40' E 029°26'2 3.4
2018-Jun-15 10:30N 44°39' E 029°24'1 2.7
2018-Jun-15 10:00N 44°40' E 029°24'2 3.4
2018-Jun-15 09:30N 44°41' E 029°26'2 3.3
2018-Jun-15 09:00N 44°42' E 029°28'2 3.2
2018-Jun-15 08:30N 44°43' E 029°30'2 3.3
2018-Jun-15 08:00N 44°43' E 029°32'5 2.4
2018-Jun-15 05:49N 44°40' E 029°26'6 2.6
2018-Jun-15 03:33N 44°40' E 029°34'0 8.9
2018-Jun-15 03:30N 44°40' E 029°34'3 5.2
2018-Jun-15 03:00N 44°38' E 029°37'1 1.4
2018-Jun-15 02:29N 44°39' E 029°37'1 1.4
2018-Jun-15 02:00N 44°40' E 029°37'1 1.2
2018-Jun-15 01:20N 44°41' E 029°37'0 0.8
2018-Jun-15 00:56N 44°41' E 029°37'0 0.8
2018-Jun-15 00:29N 44°41' E 029°36'4 9.1
2018-Jun-15 00:00N 44°40' E 029°30'5 9.2
2018-Jun-14 23:30N 44°39' E 029°24'7 9.3
2018-Jun-14 22:45N 44°37' E 029°15'3 9.3
2018-Jun-14 22:28N 44°35' E 029°12'4 8.7
2018-Jun-14 21:57N 44°33' E 029°06'5 9.2
2018-Jun-14 21:24N 44°30' E 029°00'4 9.7
2018-Jun-14 20:58N 44°28' E 028°56'4 9.6
2018-Jun-14 20:30N 44°25' E 028°51'5 9.3
2018-Jun-14 20:00N 44°22' E 028°46'4 8.1
2018-Jun-14 19:30N 44°19' E 028°41'2 4.4
2018-Jun-14 19:00N 44°20' E 028°38'0 0.0
2018-Jun-14 18:30N 44°20' E 028°38'0 0.0
2018-Jun-14 18:01N 44°20' E 028°38'0 0.0
2018-Jun-14 17:29N 44°20' E 028°38'0 0.0
2018-Jun-14 16:59N 44°20' E 028°38'0 0.0
2018-Jun-14 16:30N 44°20' E 028°38'0 0.0
2018-Jun-14 16:00N 44°20' E 028°38'0 0.0
2018-Jun-14 15:30N 44°20' E 028°38'0 0.0
2018-Jun-14 15:00N 44°20' E 028°38'0 0.0
2018-Jun-14 14:27N 44°20' E 028°38'0 0.0
2018-Jun-14 14:00N 44°20' E 028°38'0 0.0
2018-Jun-14 13:30N 44°20' E 028°38'0 0.0
2018-Jun-14 13:00N 44°20' E 028°38'0 0.0
2018-Jun-14 12:30N 44°20' E 028°38'0 0.0
2018-Jun-14 12:00N 44°20' E 028°38'0 0.0
2018-Jun-14 11:30N 44°20' E 028°38'0 0.0
2018-Jun-14 11:00N 44°20' E 028°38'0 0.0
2018-Jun-14 10:30N 44°20' E 028°38'0 0.0
2018-Jun-14 10:00N 44°20' E 028°38'0 0.0
2018-Jun-14 09:30N 44°20' E 028°38'0 0.0
2018-Jun-14 09:01N 44°20' E 028°38'0 0.0
2018-Jun-14 08:30N 44°20' E 028°38'0 0.0
2018-Jun-14 08:00N 44°20' E 028°38'0 0.0
2018-Jun-14 07:30N 44°20' E 028°38'0 0.0
2018-Jun-14 07:00N 44°20' E 028°38'0 0.0
2018-Jun-14 06:30N 44°20' E 028°38'0 0.0
2018-Jun-14 06:00N 44°20' E 028°38'0 0.0
2018-Jun-14 05:30N 44°20' E 028°38'0 0.0
2018-Jun-14 05:00N 44°20' E 028°38'0 0.0
2018-Jun-14 04:30N 44°20' E 028°38'0 0.0
2018-Jun-14 04:00N 44°20' E 028°38'0 0.0
2018-Jun-14 03:30N 44°20' E 028°38'0 0.0
2018-Jun-14 03:00N 44°20' E 028°38'0 0.0
2018-Jun-14 02:30N 44°20' E 028°38'0 0.0
2018-Jun-14 02:00N 44°20' E 028°38'0 0.0
2018-Jun-14 01:30N 44°20' E 028°38'0 0.0
2018-Jun-14 01:00N 44°20' E 028°38'0 0.0
2018-Jun-14 00:30N 44°20' E 028°38'0 0.0
2018-Jun-14 00:00N 44°20' E 028°38'0 0.0
2018-Jun-13 23:30N 44°20' E 028°38'0 0.0
2018-Jun-13 23:00N 44°20' E 028°38'0 0.0
2018-Jun-13 22:30N 44°20' E 028°38'0 0.0
2018-Jun-13 22:00N 44°20' E 028°38'0 0.0
2018-Jun-13 21:30N 44°20' E 028°38'0 0.0
2018-Jun-13 21:00N 44°20' E 028°38'0 0.0
2018-Jun-13 20:30N 44°20' E 028°38'0 0.0
2018-Jun-13 20:00N 44°20' E 028°38'0 0.0
2018-Jun-13 19:30N 44°20' E 028°38'0 0.0
2018-Jun-13 19:00N 44°20' E 028°38'0 0.0
2018-Jun-13 18:30N 44°20' E 028°38'0 0.0
2018-Jun-13 18:00N 44°20' E 028°38'0 0.0
2018-Jun-13 17:30N 44°20' E 028°38'0 0.0
2018-Jun-13 17:00N 44°20' E 028°38'0 0.0
2018-Jun-13 16:30N 44°20' E 028°38'0 0.0
2018-Jun-13 16:00N 44°20' E 028°38'0 0.0
2018-Jun-13 15:30N 44°20' E 028°38'0 0.0
2018-Jun-13 15:00N 44°20' E 028°38'0 0.0
2018-Jun-13 14:30N 44°20' E 028°38'0 0.0
2018-Jun-13 14:00N 44°20' E 028°38'0 0.0
2018-Jun-13 13:30N 44°20' E 028°38'0 0.0
2018-Jun-13 13:00N 44°20' E 028°38'0 0.0
2018-Jun-13 12:30N 44°20' E 028°38'0 0.0
2018-Jun-13 12:00N 44°20' E 028°38'0 0.0
2018-Jun-13 11:30N 44°20' E 028°38'0 0.0
2018-Jun-13 11:00N 44°20' E 028°38'0 0.0
2018-Jun-13 10:30N 44°20' E 028°38'0 0.0
2018-Jun-13 10:00N 44°20' E 028°38'0 0.0
2018-Jun-13 09:30N 44°20' E 028°38'0 0.0
2018-Jun-13 09:00N 44°20' E 028°38'0 0.0
2018-Jun-13 08:30N 44°20' E 028°38'0 0.0
2018-Jun-13 08:00N 44°20' E 028°38'0 0.0
2018-Jun-13 07:30N 44°20' E 028°38'0 0.0
2018-Jun-13 07:00N 44°20' E 028°38'0 0.0
2018-Jun-13 06:30N 44°20' E 028°38'0 0.0
2018-Jun-13 05:45N 44°20' E 028°38'0 0.0
2018-Jun-13 05:28N 44°20' E 028°38'0 0.0
2018-Jun-13 05:00N 44°20' E 028°38'0 0.0
2018-Jun-13 04:30N 44°20' E 028°38'0 0.0
2018-Jun-13 04:00N 44°20' E 028°38'0 0.0
2018-Jun-13 03:30N 44°20' E 028°38'0 0.0
2018-Jun-13 03:00N 44°20' E 028°38'0 0.0
2018-Jun-13 02:30N 44°20' E 028°38'0 0.0
2018-Jun-13 02:00N 44°20' E 028°38'0 0.0
2018-Jun-13 01:30N 44°20' E 028°38'0 0.0
2018-Jun-13 01:00N 44°20' E 028°38'0 0.0
2018-Jun-13 00:30N 44°20' E 028°38'0 0.0
2018-Jun-12 23:59N 44°20' E 028°38'0 0.0
2018-Jun-12 23:30N 44°20' E 028°38'0 0.0
2018-Jun-12 23:00N 44°20' E 028°38'0 0.0
2018-Jun-12 22:30N 44°20' E 028°38'0 0.0
2018-Jun-12 22:00N 44°20' E 028°38'0 0.0
2018-Jun-12 21:30N 44°20' E 028°38'0 0.0
2018-Jun-12 21:00N 44°20' E 028°38'0 0.0
2018-Jun-12 20:30N 44°20' E 028°38'0 0.0
2018-Jun-12 20:00N 44°20' E 028°38'0 0.0
2018-Jun-12 19:30N 44°20' E 028°38'0 0.0
2018-Jun-12 19:00N 44°20' E 028°38'0 0.0
2018-Jun-12 18:30N 44°20' E 028°38'0 0.0
2018-Jun-12 17:55N 44°20' E 028°38'0 0.0
2018-Jun-12 17:21N 44°20' E 028°38'0 0.0
2018-Jun-12 17:00N 44°20' E 028°38'0 0.0
2018-Jun-12 16:30N 44°20' E 028°38'0 0.0
2018-Jun-12 16:00N 44°20' E 028°38'0 0.0
2018-Jun-12 15:30N 44°20' E 028°38'0 0.0
2018-Jun-12 15:00N 44°20' E 028°38'0 0.0
2018-Jun-12 14:30N 44°20' E 028°38'0 0.0
2018-Jun-12 14:00N 44°20' E 028°38'0 0.0
2018-Jun-12 13:30N 44°20' E 028°38'0 0.0
2018-Jun-12 13:00N 44°20' E 028°38'0 0.0
2018-Jun-12 12:30N 44°20' E 028°38'0 0.0
2018-Jun-12 12:00N 44°20' E 028°38'0 0.0
2018-Jun-12 11:30N 44°20' E 028°38'0 0.0
2018-Jun-12 11:00N 44°20' E 028°38'0 0.0
2018-Jun-12 10:30N 44°20' E 028°38'0 0.0
2018-Jun-12 10:00N 44°20' E 028°38'0 0.0
2018-Jun-12 09:27N 44°20' E 028°38'0 0.0
2018-Jun-12 08:59N 44°20' E 028°38'0 0.0
2018-Jun-12 08:30N 44°20' E 028°38'0 0.0
2018-Jun-12 08:00N 44°20' E 028°38'0 0.0
2018-Jun-12 07:30N 44°20' E 028°38'0 0.0
2018-Jun-12 07:00N 44°20' E 028°38'0 0.0
2018-Jun-12 06:30N 44°20' E 028°38'0 0.0
2018-Jun-12 06:00N 44°20' E 028°38'0 0.0
2018-Jun-12 05:30N 44°20' E 028°38'0 0.0
2018-Jun-12 05:00N 44°20' E 028°38'0 0.0
2018-Jun-12 04:30N 44°20' E 028°38'0 0.0
2018-Jun-12 04:00N 44°20' E 028°38'0 0.0
2018-Jun-12 03:30N 44°20' E 028°38'0 0.0
2018-Jun-12 03:00N 44°20' E 028°38'0 0.0
2018-Jun-12 02:30N 44°20' E 028°38'0 0.0
2018-Jun-12 02:00N 44°20' E 028°38'0 0.0
2018-Jun-12 01:30N 44°20' E 028°38'0 0.0
2018-Jun-12 01:00N 44°20' E 028°38'0 0.0
2018-Jun-12 00:30N 44°20' E 028°38'0 0.0
2018-Jun-12 00:00N 44°20' E 028°38'0 0.0
2018-Jun-11 23:30N 44°20' E 028°38'0 0.0
2018-Jun-11 23:00N 44°20' E 028°38'0 0.0
2018-Jun-11 22:30N 44°20' E 028°38'0 0.0
2018-Jun-11 22:00N 44°20' E 028°38'0 0.0
2018-Jun-11 21:30N 44°20' E 028°38'0 0.0
2018-Jun-11 21:00N 44°20' E 028°38'0 0.0
2018-Jun-11 20:30N 44°20' E 028°38'0 0.0
2018-Jun-11 20:00N 44°20' E 028°38'0 0.0
2018-Jun-11 19:30N 44°20' E 028°38'0 0.0
2018-Jun-11 19:00N 44°20' E 028°38'0 0.0
2018-Jun-11 18:30N 44°20' E 028°38'0 0.0
2018-Jun-11 18:00N 44°20' E 028°38'0 0.0
2018-Jun-11 17:30N 44°20' E 028°38'0 0.0
2018-Jun-11 17:00N 44°20' E 028°38'0 0.0
2018-Jun-11 16:30N 44°20' E 028°38'0 0.0
2018-Jun-11 16:00N 44°20' E 028°38'0 0.0
2018-Jun-11 15:30N 44°20' E 028°38'0 0.0
2018-Jun-11 15:00N 44°20' E 028°38'0 0.0
2018-Jun-11 14:27N 44°20' E 028°38'0 0.0
2018-Jun-11 14:00N 44°20' E 028°38'0 0.0
2018-Jun-11 13:30N 44°20' E 028°38'0 0.0
2018-Jun-11 13:00N 44°20' E 028°38'0 0.0
2018-Jun-11 12:30N 44°20' E 028°38'0 0.0
2018-Jun-11 12:00N 44°20' E 028°38'0 0.0
2018-Jun-11 11:30N 44°20' E 028°38'0 0.0
2018-Jun-11 11:00N 44°20' E 028°38'0 0.0
2018-Jun-11 10:30N 44°20' E 028°38'0 0.0
2018-Jun-11 10:00N 44°20' E 028°38'0 0.0
2018-Jun-11 09:30N 44°20' E 028°38'0 0.0
2018-Jun-11 09:00N 44°20' E 028°38'0 0.0
2018-Jun-11 08:30N 44°20' E 028°38'0 0.0
2018-Jun-11 08:00N 44°20' E 028°38'0 0.0
2018-Jun-11 07:30N 44°20' E 028°38'0 0.0
2018-Jun-11 07:00N 44°20' E 028°38'0 0.0
2018-Jun-11 06:30N 44°20' E 028°38'0 0.0
2018-Jun-11 06:00N 44°20' E 028°38'0 0.0
2018-Jun-11 05:30N 44°20' E 028°38'0 0.0
2018-Jun-11 05:00N 44°20' E 028°38'0 0.0
2018-Jun-11 04:30N 44°20' E 028°38'0 0.0
2018-Jun-11 04:00N 44°20' E 028°38'0 0.0
2018-Jun-11 03:30N 44°20' E 028°38'0 0.0
2018-Jun-11 03:00N 44°20' E 028°38'0 0.0
2018-Jun-11 02:30N 44°20' E 028°38'0 0.0
2018-Jun-11 02:00N 44°20' E 028°38'0 0.0
2018-Jun-11 01:30N 44°20' E 028°38'0 0.0
2018-Jun-11 01:00N 44°20' E 028°38'0 0.0
2018-Jun-11 00:30N 44°20' E 028°38'0 0.0
2018-Jun-11 00:00N 44°20' E 028°38'0 0.0
2018-Jun-10 23:30N 44°20' E 028°38'0 0.0
2018-Jun-10 23:00N 44°20' E 028°38'0 0.0
2018-Jun-10 22:30N 44°20' E 028°38'0 0.0
2018-Jun-10 22:00N 44°20' E 028°38'2 3.4
2018-Jun-10 21:30N 44°20' E 028°41'4 8.7
2018-Jun-10 21:00N 44°16' E 028°43'4 8.8
2018-Jun-10 20:30N 44°11' E 028°43'1 2.5
2018-Jun-10 20:00N 44°13' E 028°43'2 3.2
2018-Jun-10 19:30N 44°14' E 028°43'2 3.0
2018-Jun-10 19:00N 44°16' E 028°43'  

Dump ship's entire track history